Time;durP1;ratioP1;P1;durP2;ratioP2;P2;SDS_P1;SDS_P2;PMS_P1;PMS_P2;Temp;Humidity;BMP_temperature;BMP_pressure;BME280_temperature;BME280_humidity;BME280_pressure;Samples;Min_cycle;Max_cycle;Signal;HPM_P1;HPM_P2
2023/07/11 00:00:48;;;;;;;0.10;0.10;;;21.80;99.90;;;;;;5027049;28;20788;-82
2023/07/11 00:03:13;;;;;;;0.10;0.10;;;21.80;99.90;;;;;;5027375;28;20183;-83
2023/07/11 00:05:39;;;;;;;0.10;0.10;;;21.90;99.90;;;;;;5027240;28;20633;-82
2023/07/11 00:08:05;;;;;;;0.10;0.10;;;21.60;99.90;;;;;;5027485;28;20206;-83
2023/07/11 00:10:31;;;;;;;0.10;0.10;;;21.50;99.90;;;;;;5026577;28;20199;-82
2023/07/11 00:12:56;;;;;;;0.10;0.10;;;21.40;99.90;;;;;;5025273;28;20186;-82
2023/07/11 00:15:22;;;;;;;0.10;0.10;;;21.40;99.90;;;;;;5025320;28;20285;-83
2023/07/11 00:17:48;;;;;;;0.10;0.10;;;21.30;99.90;;;;;;5025238;28;20214;-82
2023/07/11 00:20:15;;;;;;;0.10;0.10;;;21.30;99.90;;;;;;5025747;28;20211;-82
2023/07/11 00:22:43;;;;;;;0.10;0.10;;;21.40;99.90;;;;;;5026921;28;20178;-83
2023/07/11 00:25:09;;;;;;;0.10;0.10;;;21.50;99.90;;;;;;5034811;28;20198;-82
2023/07/11 00:27:35;;;;;;;0.10;0.10;;;21.60;99.90;;;;;;5023216;28;20214;-82
2023/07/11 00:30:02;;;;;;;0.10;0.10;;;21.60;99.90;;;;;;5027495;28;20213;-82
2023/07/11 00:32:27;;;;;;;0.10;0.10;;;21.60;99.90;;;;;;5025862;28;20198;-82
2023/07/11 00:34:54;;;;;;;0.10;0.10;;;21.60;99.90;;;;;;5028807;28;20190;-82
2023/07/11 00:37:19;;;;;;;0.10;0.10;;;21.70;99.90;;;;;;5026483;28;20241;-82
2023/07/11 00:39:45;;;;;;;0.10;0.10;;;21.70;99.90;;;;;;5024588;28;20245;-82
2023/07/11 00:42:10;;;;;;;0.10;0.10;;;21.60;99.90;;;;;;5028135;28;20178;-82
2023/07/11 00:44:55;;;;;;;0.10;0.10;;;21.60;99.90;;;;;;5024460;28;21228;-83
2023/07/11 00:47:23;;;;;;;0.10;0.10;;;21.70;99.90;;;;;;5026216;28;20202;-83
2023/07/11 00:49:54;;;;;;;0.10;0.10;;;21.60;99.90;;;;;;5026255;28;20194;-83
2023/07/11 00:52:20;;;;;;;0.10;0.10;;;21.60;99.90;;;;;;5026649;28;20293;-83
2023/07/11 00:54:50;;;;;;;0.10;0.10;;;21.60;99.90;;;;;;5024511;28;20190;-82
2023/07/11 00:57:17;;;;;;;0.10;0.10;;;21.50;99.90;;;;;;5026040;28;20214;-82
2023/07/11 00:59:43;;;;;;;0.10;0.10;;;21.50;99.90;;;;;;5027337;28;20206;-82
2023/07/11 01:02:13;;;;;;;0.10;0.10;;;21.30;99.90;;;;;;5027103;28;20210;-83
2023/07/11 01:04:39;;;;;;;0.10;0.10;;;21.20;99.90;;;;;;5027075;28;20170;-83
2023/07/11 01:07:08;;;;;;;0.10;0.10;;;21.10;99.90;;;;;;5026406;28;20189;-83
2023/07/11 01:09:34;;;;;;;0.10;0.10;;;21.20;99.90;;;;;;5024285;28;20220;-82
2023/07/11 01:12:05;;;;;;;0.10;0.10;;;20.90;99.90;;;;;;5025117;28;20214;-82
2023/07/11 01:14:31;;;;;;;0.10;0.10;;;21.10;99.90;;;;;;5024173;28;20297;-83
2023/07/11 01:16:56;;;;;;;0.10;0.10;;;21.10;99.90;;;;;;5025700;28;20626;-83
2023/07/11 01:19:24;;;;;;;0.10;0.10;;;20.90;99.90;;;;;;5025302;28;20186;-82
2023/07/11 01:21:50;;;;;;;0.10;0.10;;;21.00;99.90;;;;;;5024940;28;20229;-81
2023/07/11 01:24:16;;;;;;;0.10;0.10;;;21.00;99.90;;;;;;5025708;28;20187;-82
2023/07/11 01:26:41;;;;;;;0.10;0.10;;;21.00;99.90;;;;;;5025189;28;20206;-83
2023/07/11 01:29:08;;;;;;;0.10;0.10;;;21.00;99.90;;;;;;5025823;28;20214;-83
2023/07/11 01:31:34;;;;;;;0.10;0.10;;;21.10;99.90;;;;;;5026382;28;20230;-82
2023/07/11 01:34:05;;;;;;;0.10;0.10;;;20.90;99.90;;;;;;5024410;28;20208;-83
2023/07/11 01:36:31;;;;;;;0.10;0.10;;;21.10;99.90;;;;;;5025481;28;20678;-82
2023/07/11 01:38:57;;;;;;;0.10;0.10;;;21.10;99.90;;;;;;5025675;28;21072;-82
2023/07/11 01:41:23;;;;;;;0.10;0.10;;;21.20;99.90;;;;;;5024356;28;20624;-82
2023/07/11 01:43:49;;;;;;;0.10;0.10;;;21.20;99.90;;;;;;5025750;28;20278;-82
2023/07/11 01:46:14;;;;;;;0.10;0.10;;;21.20;99.90;;;;;;5024030;28;20266;-83
2023/07/11 01:48:40;;;;;;;0.10;0.10;;;21.10;99.90;;;;;;5023721;28;20204;-82
2023/07/11 01:51:05;;;;;;;0.10;0.10;;;21.00;99.90;;;;;;5025654;28;20186;-83
2023/07/11 01:53:31;;;;;;;0.10;0.10;;;21.10;99.90;;;;;;5025519;28;20225;-81
2023/07/11 01:55:59;;;;;;;0.10;0.10;;;21.10;99.90;;;;;;5024482;28;20186;-82
2023/07/11 01:58:25;;;;;;;0.10;0.10;;;21.00;99.90;;;;;;5024972;28;20210;-82
2023/07/11 02:00:50;;;;;;;0.10;0.10;;;21.00;99.90;;;;;;5023578;28;20355;-82
2023/07/11 02:03:16;;;;;;;0.10;0.10;;;21.00;99.90;;;;;;5024692;28;20179;-82
2023/07/11 02:05:41;;;;;;;0.10;0.10;;;21.00;99.90;;;;;;5026211;28;20645;-82
2023/07/11 02:08:07;;;;;;;0.10;0.10;;;20.80;99.90;;;;;;5022296;28;20198;-83
2023/07/11 02:10:33;;;;;;;0.10;0.10;;;20.80;99.90;;;;;;5025270;28;20201;-83
2023/07/11 02:12:58;;;;;;;0.10;0.10;;;20.80;99.90;;;;;;5022981;28;20539;-83
2023/07/11 02:15:24;;;;;;;0.10;0.10;;;20.90;99.90;;;;;;5025058;28;20214;-82
2023/07/11 02:17:49;;;;;;;0.10;0.10;;;20.90;99.90;;;;;;5024040;28;20292;-82
2023/07/11 02:20:15;;;;;;;0.10;0.10;;;20.90;99.90;;;;;;5022625;28;20210;-83
2023/07/11 02:22:41;;;;;;;0.10;0.10;;;21.00;99.90;;;;;;5022884;28;20178;-83
2023/07/11 02:25:07;;;;;;;0.10;0.10;;;20.90;99.90;;;;;;5023435;28;20178;-82
2023/07/11 02:27:32;;;;;;;0.10;0.10;;;20.60;99.90;;;;;;5023517;28;20211;-82
2023/07/11 02:29:58;;;;;;;0.10;0.10;;;20.60;99.90;;;;;;5026003;28;20193;-82
2023/07/11 02:32:24;;;;;;;0.10;0.10;;;20.50;99.90;;;;;;5025144;28;20227;-83
2023/07/11 02:34:50;;;;;;;0.10;0.10;;;20.20;99.90;;;;;;5023991;28;20782;-82
2023/07/11 02:37:15;;;;;;;0.10;0.10;;;20.20;99.90;;;;;;5025147;28;20206;-82
2023/07/11 02:39:41;;;;;;;0.10;0.10;;;20.10;99.90;;;;;;5023550;28;20206;-82
2023/07/11 02:42:07;;;;;;;0.10;0.10;;;20.10;99.90;;;;;;5024411;28;20190;-82
2023/07/11 02:44:33;;;;;;;0.10;0.10;;;20.20;99.90;;;;;;5024495;28;20186;-82
2023/07/11 02:46:58;;;;;;;0.10;0.10;;;20.20;99.90;;;;;;5024721;28;20183;-82
2023/07/11 02:49:24;;;;;;;0.10;0.10;;;20.30;99.90;;;;;;5023610;28;20213;-82
2023/07/11 02:51:49;;;;;;;0.10;0.10;;;20.40;99.90;;;;;;5021704;28;20237;-82
2023/07/11 02:54:15;;;;;;;0.10;0.10;;;20.40;99.90;;;;;;5023061;28;20202;-82
2023/07/11 02:56:40;;;;;;;0.10;0.10;;;20.40;99.90;;;;;;5032179;28;20192;-82
2023/07/11 02:59:06;;;;;;;0.10;0.10;;;20.40;99.90;;;;;;5025383;28;20286;-83
2023/07/11 03:01:32;;;;;;;0.10;0.10;;;20.50;99.90;;;;;;5024466;28;20214;-83
2023/07/11 03:03:58;;;;;;;0.10;0.10;;;20.50;99.90;;;;;;5024073;28;20191;-82
2023/07/11 03:06:24;;;;;;;0.10;0.10;;;20.60;99.90;;;;;;5025138;28;20198;-82
2023/07/11 03:08:49;;;;;;;0.10;0.10;;;20.60;99.90;;;;;;5024697;28;20229;-82
2023/07/11 03:11:15;;;;;;;0.10;0.10;;;20.50;99.90;;;;;;5023284;28;20655;-82
2023/07/11 03:13:42;;;;;;;0.10;0.10;;;20.50;99.90;;;;;;5023792;28;20194;-82
2023/07/11 03:16:07;;;;;;;0.10;0.10;;;20.40;99.90;;;;;;5025450;28;20186;-82
2023/07/11 03:18:33;;;;;;;0.10;0.10;;;20.40;99.90;;;;;;5024835;28;20937;-82
2023/07/11 03:21:00;;;;;;;0.10;0.10;;;20.50;99.90;;;;;;5024851;28;20246;-82
2023/07/11 03:23:26;;;;;;;0.10;0.10;;;20.40;99.90;;;;;;5024425;28;20238;-81
2023/07/11 03:25:52;;;;;;;0.10;0.10;;;20.40;99.90;;;;;;5024439;28;20193;-82
2023/07/11 03:28:17;;;;;;;0.10;0.10;;;20.20;99.90;;;;;;5024240;28;20202;-82
2023/07/11 03:30:43;;;;;;;0.10;0.10;;;20.20;99.90;;;;;;5024116;28;20636;-82
2023/07/11 03:33:08;;;;;;;0.10;0.10;;;20.20;99.90;;;;;;5023507;28;20192;-82
2023/07/11 03:35:34;;;;;;;0.10;0.10;;;20.20;99.90;;;;;;5021688;28;20648;-82
2023/07/11 03:38:00;;;;;;;0.10;0.10;;;20.20;99.90;;;;;;5021510;28;20287;-82
2023/07/11 03:40:26;;;;;;;0.10;0.10;;;20.30;99.90;;;;;;5025383;28;20222;-82
2023/07/11 03:42:52;;;;;;;0.10;0.10;;;20.30;99.90;;;;;;5022358;28;21024;-82
2023/07/11 03:45:17;;;;;;;0.10;0.10;;;20.40;99.90;;;;;;5023579;28;20193;-83
2023/07/11 03:47:43;;;;;;;0.10;0.10;;;20.60;99.90;;;;;;5024110;28;20207;-82
2023/07/11 03:50:09;;;;;;;0.10;0.10;;;21.00;99.90;;;;;;5023909;28;20277;-82
2023/07/11 03:52:35;;;;;;;0.10;0.10;;;21.40;99.90;;;;;;5023992;28;20250;-82
2023/07/11 03:55:00;;;;;;;0.10;0.10;;;21.70;99.90;;;;;;5025286;28;20842;-82
2023/07/11 03:57:26;;;;;;;0.10;0.10;;;22.20;99.90;;;;;;5025786;28;20256;-82
2023/07/11 03:59:52;;;;;;;0.10;0.10;;;22.70;99.90;;;;;;5027552;28;20203;-83
2023/07/11 04:02:18;;;;;;;0.10;0.10;;;23.20;99.90;;;;;;5024465;28;20269;-82
2023/07/11 04:04:43;;;;;;;0.10;0.10;;;23.70;99.90;;;;;;5027271;28;20408;-82
2023/07/11 04:07:09;;;;;;;0.10;0.10;;;24.20;99.90;;;;;;5027135;28;20217;-82
2023/07/11 04:09:39;;;;;;;0.10;0.10;;;24.70;99.90;;;;;;5026404;28;20179;-82
2023/07/11 04:12:05;;;;;;;0.10;0.10;;;25.10;99.90;;;;;;5024870;28;20227;-81
2023/07/11 04:14:31;;;;;;;0.10;0.10;;;25.50;99.90;;;;;;5027111;28;20240;-83
2023/07/11 04:16:56;;;;;;;0.10;0.10;;;25.80;99.90;;;;;;5027835;28;20242;-82
2023/07/11 04:19:22;;;;;;;0.10;0.10;;;26.10;99.90;;;;;;5025068;28;20555;-83
2023/07/11 04:21:47;;;;;;;0.10;0.10;;;26.20;99.90;;;;;;5027645;28;20210;-82
2023/07/11 04:24:13;;;;;;;0.10;0.10;;;26.40;99.90;;;;;;5023835;28;20192;-82
2023/07/11 04:26:39;;;;;;;0.10;0.10;;;26.50;99.90;;;;;;5022816;28;20610;-82
2023/07/11 04:29:04;;;;;;;0.10;0.10;;;26.00;99.90;;;;;;5026869;28;20202;-82
2023/07/11 04:31:30;;;;;;;0.10;0.10;;;25.40;99.90;;;;;;5023647;28;20186;-82
2023/07/11 04:33:55;;;;;;;0.10;0.10;;;24.90;99.90;;;;;;5023758;28;20270;-82
2023/07/11 04:36:21;;;;;;;0.10;0.10;;;24.60;99.90;;;;;;5020417;28;20204;-82
2023/07/11 04:38:46;;;;;;;0.10;0.10;;;24.20;99.90;;;;;;5020116;28;20624;-82
2023/07/11 04:41:12;;;;;;;0.10;0.10;;;23.90;99.90;;;;;;5020032;28;20254;-83
2023/07/11 04:43:39;;;;;;;0.10;0.10;;;23.80;99.90;;;;;;5030782;28;20189;-83
2023/07/11 04:46:05;;;;;;;0.10;0.10;;;23.60;99.90;;;;;;5028339;28;20183;-81
2023/07/11 04:48:32;;;;;;;0.10;0.10;;;23.40;99.90;;;;;;5025612;28;20210;-83
2023/07/11 04:50:59;;;;;;;0.10;0.10;;;23.40;99.90;;;;;;5025469;28;20210;-84
2023/07/11 04:53:26;;;;;;;0.10;0.10;;;23.40;99.90;;;;;;5028418;28;20190;-83
2023/07/11 04:56:03;;;;;;;0.10;0.10;;;23.40;99.90;;;;;;5028038;28;20187;-84
2023/07/11 04:58:30;;;;;;;0.10;0.10;;;23.20;99.90;;;;;;5023927;28;20218;-82
2023/07/11 05:01:13;;;;;;;0.10;0.10;;;23.10;99.90;;;;;;5025121;28;20292;-82
2023/07/11 05:03:39;;;;;;;0.10;0.10;;;22.90;99.90;;;;;;5022615;28;20229;-84
2023/07/11 05:06:06;;;;;;;0.10;0.10;;;22.90;99.90;;;;;;5023450;28;20238;-83
2023/07/11 05:08:32;;;;;;;0.10;0.10;;;22.80;99.90;;;;;;5022173;28;20202;-83
2023/07/11 05:11:16;;;;;;;0.10;0.10;;;22.60;99.90;;;;;;5022449;28;20197;-83
2023/07/11 05:13:44;;;;;;;0.10;0.10;;;22.50;99.90;;;;;;5023345;28;20484;-83
2023/07/11 05:16:15;;;;;;;0.10;0.10;;;22.50;99.90;;;;;;5024354;28;20194;-82
2023/07/11 05:18:41;;;;;;;0.10;0.10;;;22.40;99.90;;;;;;5022538;28;20211;-84
2023/07/11 05:21:11;;;;;;;0.10;0.10;;;22.30;99.90;;;;;;5022788;28;20202;-83
2023/07/11 05:23:38;;;;;;;0.10;0.10;;;22.40;99.90;;;;;;5020435;28;20193;-83
2023/07/11 05:26:05;;;;;;;0.10;0.10;;;22.40;99.90;;;;;;5023352;28;20661;-82
2023/07/11 05:28:32;;;;;;;0.10;0.10;;;22.50;99.90;;;;;;5026129;28;20284;-82
2023/07/11 05:31:01;;;;;;;0.10;0.10;;;22.40;99.90;;;;;;5027726;28;20194;-81
2023/07/11 05:33:27;;;;;;;0.10;0.10;;;22.40;99.90;;;;;;5025948;28;20818;-82
2023/07/11 05:36:09;;;;;;;0.10;0.10;;;22.40;99.90;;;;;;5022151;28;20332;-82
2023/07/11 05:38:35;;;;;;;0.10;0.10;;;22.50;99.90;;;;;;5024999;28;20257;-83
2023/07/11 05:41:01;;;;;;;0.10;0.10;;;22.70;99.90;;;;;;5023783;28;20218;-82
2023/07/11 05:43:27;;;;;;;0.10;0.10;;;22.80;99.90;;;;;;5025915;28;20958;-82
2023/07/11 05:45:52;;;;;;;0.10;0.10;;;22.90;99.90;;;;;;5026392;28;20183;-82
2023/07/11 05:48:18;;;;;;;0.10;0.10;;;23.00;99.90;;;;;;5025199;28;20210;-82
2023/07/11 05:50:44;;;;;;;0.10;0.10;;;23.20;99.90;;;;;;5025295;28;20261;-83
2023/07/11 05:53:09;;;;;;;0.10;0.10;;;23.20;99.90;;;;;;5026262;28;20276;-81
2023/07/11 05:55:35;;;;;;;0.10;0.10;;;23.40;99.90;;;;;;5032352;28;20194;-82
2023/07/11 05:58:00;;;;;;;0.10;0.10;;;23.50;99.90;;;;;;5030186;28;20209;-81
2023/07/11 06:00:26;;;;;;;0.10;0.10;;;23.70;99.90;;;;;;5031065;28;20198;-82
2023/07/11 06:02:51;;;;;;;0.10;0.10;;;23.80;99.90;;;;;;5028355;28;20195;-82
2023/07/11 06:05:17;;;;;;;0.10;0.10;;;23.90;99.90;;;;;;5027691;28;20190;-82
2023/07/11 06:07:43;;;;;;;0.10;0.10;;;23.90;99.90;;;;;;5025761;28;20202;-82
2023/07/11 06:10:09;;;;;;;0.10;0.10;;;23.90;99.90;;;;;;5029770;28;20186;-82
2023/07/11 06:12:34;;;;;;;0.10;0.10;;;24.00;99.90;;;;;;5026828;28;20178;-82
2023/07/11 06:15:00;;;;;;;0.10;0.10;;;24.10;99.90;;;;;;5025923;28;20212;-82
2023/07/11 06:17:27;;;;;;;0.10;0.10;;;24.20;99.90;;;;;;5025736;28;20244;-81
2023/07/11 06:19:52;;;;;;;0.10;0.10;;;24.20;99.90;;;;;;5022731;28;20279;-82
2023/07/11 06:22:18;;;;;;;0.10;0.10;;;24.30;99.90;;;;;;5023277;28;20206;-82
2023/07/11 06:24:43;;;;;;;0.10;0.10;;;24.40;99.90;;;;;;5024312;28;20216;-83
2023/07/11 06:27:09;;;;;;;0.10;0.10;;;24.60;99.90;;;;;;5023692;28;21507;-84
2023/07/11 06:29:35;;;;;;;0.10;0.10;;;24.80;99.90;;;;;;5023837;28;21126;-82
2023/07/11 06:32:00;;;;;;;0.10;0.10;;;24.80;99.90;;;;;;5023084;28;20182;-83
2023/07/11 06:34:26;;;;;;;0.10;0.10;;;25.00;99.90;;;;;;5024033;28;20190;-83
2023/07/11 06:36:51;;;;;;;0.10;0.10;;;25.10;99.90;;;;;;5024882;28;20190;-83
2023/07/11 06:39:17;;;;;;;0.10;0.10;;;25.30;99.90;;;;;;5025639;28;20218;-84
2023/07/11 06:41:42;;;;;;;0.10;0.10;;;25.40;99.90;;;;;;5021945;28;20206;-83
2023/07/11 06:44:08;;;;;;;0.10;0.10;;;25.30;99.90;;;;;;5025235;28;20217;-84
2023/07/11 06:46:34;;;;;;;0.10;0.10;;;25.00;99.90;;;;;;5025964;28;20183;-82
2023/07/11 06:49:01;;;;;;;0.10;0.10;;;24.90;99.90;;;;;;5024091;28;20684;-83
2023/07/11 06:51:27;;;;;;;0.10;0.10;;;24.80;99.90;;;;;;5022909;28;20691;-83
2023/07/11 06:53:54;;;;;;;0.10;0.10;;;24.60;99.90;;;;;;5022830;28;20197;-83
2023/07/11 06:56:20;;;;;;;0.10;0.10;;;24.50;99.90;;;;;;5024681;28;20193;-83
2023/07/11 06:58:45;;;;;;;0.10;0.10;;;24.70;99.90;;;;;;5023629;28;20206;-83
2023/07/11 07:01:12;;;;;;;0.10;0.10;;;24.80;99.90;;;;;;5023792;28;20202;-83
2023/07/11 07:03:37;;;;;;;0.10;0.10;;;24.90;99.90;;;;;;5023858;28;20210;-83
2023/07/11 07:06:06;;;;;;;0.10;0.10;;;25.40;99.90;;;;;;5024859;28;20224;-83
2023/07/11 07:08:31;;;;;;;0.10;0.10;;;25.60;99.90;;;;;;5022982;28;20230;-83
2023/07/11 07:10:57;;;;;;;0.10;0.10;;;25.40;99.90;;;;;;5024024;28;20187;-83
2023/07/11 07:13:24;;;;;;;0.10;0.10;;;25.60;99.90;;;;;;5024692;28;20197;-83
2023/07/11 07:15:56;;;;;;;0.10;0.10;;;25.50;99.90;;;;;;5024799;28;20190;-82
2023/07/11 07:18:22;;;;;;;0.10;0.10;;;25.80;99.90;;;;;;5024365;28;20202;-83
2023/07/11 07:20:50;;;;;;;0.10;0.10;;;26.00;99.90;;;;;;5021861;28;20210;-83
2023/07/11 07:23:16;;;;;;;0.10;0.10;;;26.40;99.90;;;;;;5021064;28;21799;-83
2023/07/11 07:25:53;;;;;;;0.10;0.10;;;26.50;99.90;;;;;;5021475;28;20183;-82
2023/07/11 07:28:19;;;;;;;0.10;0.10;;;26.70;99.90;;;;;;5017917;28;21971;-83
2023/07/11 07:30:51;;;;;;;0.10;0.10;;;26.60;99.90;;;;;;5022094;28;20197;-83
2023/07/11 07:33:17;;;;;;;0.10;0.10;;;26.70;99.90;;;;;;5023306;28;20270;-83
2023/07/11 07:35:43;;;;;;;0.10;0.10;;;26.90;99.90;;;;;;5021198;28;20250;-83
2023/07/11 07:38:10;;;;;;;0.10;0.10;;;27.20;99.90;;;;;;5021154;28;20709;-83
2023/07/11 07:40:36;;;;;;;0.10;0.10;;;27.20;99.90;;;;;;5027069;28;20202;-83
2023/07/11 07:43:01;;;;;;;0.10;0.10;;;27.40;99.90;;;;;;5026433;28;20198;-83
2023/07/11 07:45:27;;;;;;;0.10;0.10;;;27.30;99.90;;;;;;5028699;28;20190;-83
2023/07/11 07:47:52;;;;;;;0.10;0.10;;;26.80;99.90;;;;;;5029124;28;20214;-82
2023/07/11 07:50:18;;;;;;;0.10;0.10;;;26.90;99.90;;;;;;5027247;28;20193;-82
2023/07/11 07:52:43;;;;;;;0.10;0.10;;;27.10;99.90;;;;;;5023562;28;20436;-82
2023/07/11 07:55:09;;;;;;;0.10;0.10;;;27.50;99.90;;;;;;5024355;28;20206;-81
2023/07/11 07:57:35;;;;;;;0.10;0.10;;;27.70;99.90;;;;;;5021290;28;20260;-86
2023/07/11 08:00:02;;;;;;;0.10;0.10;;;27.80;99.90;;;;;;5022649;28;20206;-85
2023/07/11 08:02:31;;;;;;;0.10;0.10;;;28.00;99.90;;;;;;5020142;28;20190;-85
2023/07/11 08:04:57;;;;;;;0.10;0.10;;;28.10;99.90;;;;;;5021115;28;20182;-84
2023/07/11 08:07:23;;;;;;;0.10;0.10;;;28.30;99.90;;;;;;5024564;28;20687;-86
2023/07/11 08:09:49;;;;;;;0.10;0.10;;;28.50;99.90;;;;;;5024195;28;20185;-84
2023/07/11 08:12:15;;;;;;;0.10;0.10;;;28.70;99.90;;;;;;5021276;28;20186;-85
2023/07/11 08:14:41;;;;;;;0.10;0.10;;;28.10;99.90;;;;;;5023774;28;20198;-85
2023/07/11 08:17:08;;;;;;;0.10;0.10;;;28.20;99.90;;;;;;5023521;28;20179;-87
2023/07/11 08:19:34;;;;;;;0.10;0.10;;;28.40;99.90;;;;;;5021467;28;20359;-85
2023/07/11 08:22:00;;;;;;;0.10;0.10;;;27.90;99.90;;;;;;5021052;28;20709;-85
2023/07/11 08:24:26;;;;;;;0.10;0.10;;;28.10;99.90;;;;;;5019772;28;20259;-85
2023/07/11 08:26:51;;;;;;;0.10;0.10;;;27.80;99.90;;;;;;5021362;28;20536;-86
2023/07/11 08:29:17;;;;;;;36.28;4.72;;;28.40;99.90;;;;;;5021585;28;20186;-85
2023/07/11 08:31:43;;;;;;;0.10;0.10;;;28.80;99.90;;;;;;5023021;28;20186;-85
2023/07/11 08:34:09;;;;;;;0.10;0.10;;;29.20;99.90;;;;;;5020166;28;20187;-85
2023/07/11 08:36:37;;;;;;;0.10;0.10;;;29.40;99.90;;;;;;5022881;28;20189;-85
2023/07/11 08:39:03;;;;;;;0.10;0.10;;;29.60;99.90;;;;;;5020654;28;20209;-86
2023/07/11 08:41:40;;;;;;;0.10;0.10;;;29.90;99.90;;;;;;5021206;28;20211;-84
2023/07/11 08:44:17;;;;;;;0.10;0.10;;;29.90;99.90;;;;;;5018060;28;20215;-82
2023/07/11 08:46:53;;;;;;;0.10;0.10;;;30.10;99.90;;;;;;5023541;28;20707;-82
2023/07/11 08:49:27;;;;;;;0.10;0.10;;;29.70;99.90;;;;;;5024832;28;20209;-83
2023/07/11 08:51:56;;;;;;;0.10;0.10;;;29.40;99.90;;;;;;5027340;28;20189;-82
2023/07/11 08:54:33;;;;;;;0.10;0.10;;;29.60;99.90;;;;;;5027403;28;20228;-82
2023/07/11 08:56:59;;;;;;;0.10;0.10;;;30.00;99.90;;;;;;5029597;28;20178;-82
2023/07/11 09:00:23;;;;;;;0.10;0.10;;;30.20;99.90;;;;;;5022994;28;20201;-83
2023/07/11 09:03:11;;;;;;;0.10;0.10;;;30.00;99.90;;;;;;5019543;28;20627;-84
2023/07/11 09:05:57;;;;;;;0.10;0.10;;;30.40;99.90;;;;;;5016409;28;20198;-82
2023/07/11 09:08:22;;;;;;;0.10;0.10;;;30.50;99.90;;;;;;5026309;28;20206;-82
2023/07/11 09:11:09;;;;;;;0.10;0.10;;;30.80;99.90;;;;;;5022840;28;20217;-82
2023/07/11 09:13:53;;;;;;;0.10;0.10;;;30.60;99.90;;;;;;5023369;28;20202;-82
2023/07/11 09:16:51;;;;;;;0.10;0.10;;;30.60;99.90;;;;;;5021450;28;20183;-82
2023/07/11 09:19:53;;;;;;;0.10;0.10;;;31.00;99.90;;;;;;5023737;28;20706;-83
2023/07/11 09:22:21;;;;;;;0.10;0.10;;;31.20;99.90;;;;;;5022766;28;20273;-83
2023/07/11 09:25:12;;;;;;;0.10;0.10;;;31.00;99.90;;;;;;5024857;28;20224;-82
2023/07/11 09:27:44;;;;;;;0.10;0.10;;;31.20;99.90;;;;;;5024165;28;20290;-82
2023/07/11 09:30:22;;;;;;;0.10;0.10;;;31.60;99.90;;;;;;5025233;28;20544;-82
2023/07/11 09:32:48;;;;;;;0.10;0.10;;;31.60;99.90;;;;;;5023550;28;20691;-83
2023/07/11 09:35:24;;;;;;;0.10;0.10;;;31.70;99.90;;;;;;5020202;28;20199;-83
2023/07/11 09:37:55;;;;;;;0.10;0.10;;;31.80;99.90;;;;;;5018328;28;20206;-83
2023/07/11 09:40:31;;;;;;;0.10;0.10;;;31.50;99.90;;;;;;5021045;28;20255;-82
2023/07/11 09:42:57;;;;;;;0.10;0.10;;;31.90;99.90;;;;;;5023191;28;20186;-82
2023/07/11 09:45:32;;;;;;;0.10;0.10;;;31.90;99.90;;;;;;5024821;28;20179;-82
2023/07/11 09:48:27;;;;;;;0.10;0.10;;;32.10;99.90;;;;;;5024110;28;20205;-82
2023/07/11 09:51:05;;;;;;;0.10;0.10;;;32.10;99.90;;;;;;5024704;28;20285;-81
2023/07/11 09:53:32;;;;;;;0.10;0.10;;;31.90;99.90;;;;;;5025280;28;20198;-81
2023/07/11 09:56:00;;;;;;;0.10;0.10;;;32.10;99.90;;;;;;5025904;28;20221;-82
2023/07/11 09:58:32;;;;;;;0.10;0.10;;;32.10;99.90;;;;;;5023159;28;20212;-82
2023/07/11 10:01:01;;;;;;;0.10;0.10;;;32.20;99.90;;;;;;5018627;28;20210;-82
2023/07/11 10:03:28;;;;;;;0.10;0.10;;;32.20;99.90;;;;;;5021456;28;20194;-81
2023/07/11 10:05:54;;;;;;;0.10;0.10;;;32.30;99.90;;;;;;5020705;28;20260;-82
2023/07/11 10:08:26;;;;;;;0.10;0.10;;;32.40;99.90;;;;;;5021736;28;20210;-83
2023/07/11 10:10:54;;;;;;;0.10;0.10;;;32.50;99.90;;;;;;5018597;28;20198;-82
2023/07/11 10:13:22;;;;;;;0.10;0.10;;;32.60;99.90;;;;;;5020757;28;20178;-82
2023/07/11 10:15:56;;;;;;;0.10;0.10;;;32.70;99.90;;;;;;5021129;28;20205;-82
2023/07/11 10:18:27;;;;;;;0.10;0.10;;;32.80;99.90;;;;;;5022540;28;20232;-82
2023/07/11 10:21:00;;;;;;;0.10;0.10;;;32.90;99.90;;;;;;5019360;28;20267;-82
2023/07/11 10:23:26;;;;;;;0.10;0.10;;;33.00;99.90;;;;;;5034099;28;20186;-82
2023/07/11 10:25:54;;;;;;;0.10;0.10;;;32.90;99.90;;;;;;5020430;28;20187;-82
2023/07/11 10:28:33;;;;;;;0.10;0.10;;;33.00;99.90;;;;;;5025505;28;20203;-82
2023/07/11 10:31:10;;;;;;;0.10;0.10;;;33.20;99.90;;;;;;5021884;28;20182;-83
2023/07/11 10:33:53;;;;;;;0.10;0.10;;;33.20;99.90;;;;;;5023794;28;20638;-83
2023/07/11 10:36:27;;;;;;;0.10;0.10;;;32.80;99.90;;;;;;5027646;28;20740;-83
2023/07/11 10:39:03;;;;;;;0.10;0.10;;;32.90;99.90;;;;;;5035417;28;20210;-83
2023/07/11 10:41:39;;;;;;;0.10;0.10;;;33.30;99.90;;;;;;5023516;28;20579;-82
2023/07/11 10:44:15;;;;;;;0.10;0.10;;;33.60;99.90;;;;;;5023397;28;20193;-83
2023/07/11 10:46:50;;;;;;;0.10;0.10;;;33.50;99.90;;;;;;5024874;28;20177;-83
2023/07/11 10:49:21;;;;;;;0.10;0.10;;;33.60;99.90;;;;;;5023497;28;20299;-82
2023/07/11 10:52:08;;;;;;;0.10;0.10;;;33.20;99.90;;;;;;5024778;28;20190;-82
2023/07/11 10:54:50;;;;;;;0.10;0.10;;;33.10;99.90;;;;;;5017833;28;20368;-83
2023/07/11 10:57:33;;;;;;;0.10;0.10;;;32.80;99.90;;;;;;5024167;28;20208;-83
2023/07/11 10:59:59;;;;;;;0.10;0.10;;;33.30;99.90;;;;;;5017967;28;20186;-83
2023/07/11 11:02:58;;;;;;;0.10;0.10;;;33.60;99.90;;;;;;5021701;28;20313;-83
2023/07/11 11:05:35;;;;;;;0.10;0.10;;;33.70;99.90;;;;;;5018444;28;20202;-83
2023/07/11 11:08:10;;;;;;;0.10;0.10;;;33.70;99.90;;;;;;5026281;28;20689;-83
2023/07/11 11:10:46;;;;;;;0.10;0.10;;;33.70;99.90;;;;;;5027891;28;20182;-83
2023/07/11 11:13:34;;;;;;;0.10;0.10;;;33.90;99.90;;;;;;5025528;28;20193;-83
2023/07/11 11:16:16;;;;;;;0.10;0.10;;;34.10;99.90;;;;;;5028379;28;20640;-83
2023/07/11 11:19:03;;;;;;;0.10;0.10;;;34.20;99.90;;;;;;5033148;28;20202;-83
2023/07/11 11:21:54;;;;;;;0.10;0.10;;;34.30;99.90;;;;;;5029595;28;20202;-82
2023/07/11 11:24:45;;;;;;;0.10;0.10;;;34.30;99.90;;;;;;5031416;28;20614;-82
2023/07/11 11:27:20;;;;;;;0.10;0.10;;;34.30;99.90;;;;;;5029474;28;20649;-82
2023/07/11 11:29:55;;;;;;;0.10;0.10;;;34.30;99.90;;;;;;5028936;28;20194;-82
2023/07/11 11:32:41;;;;;;;0.10;0.10;;;34.50;99.90;;;;;;5031172;28;20216;-83
2023/07/11 11:35:27;;;;;;;0.10;0.10;;;34.60;99.90;;;;;;5032032;28;20179;-82
2023/07/11 11:38:20;;;;;;;0.10;0.10;;;34.40;99.90;;;;;;5029118;28;20578;-83
2023/07/11 11:40:51;;;;;;;0.10;0.10;;;34.70;99.90;;;;;;5040382;28;20210;-83
2023/07/11 11:43:19;;;;;;;0.10;0.10;;;34.70;99.90;;;;;;5030947;28;20210;-82
2023/07/11 11:45:47;;;;;;;0.20;0.20;;;34.60;99.90;;;;;;5028759;28;20709;-83
2023/07/11 11:48:25;;;;;;;0.10;0.10;;;34.70;99.90;;;;;;5027085;28;20206;-82
2023/07/11 11:50:52;;;;;;;0.10;0.10;;;34.70;99.90;;;;;;5020051;28;20677;-83
2023/07/11 11:53:46;;;;;;;0.10;0.10;;;34.90;99.90;;;;;;5030756;28;20189;-83
2023/07/11 11:56:19;;;;;;;0.10;0.10;;;34.90;99.90;;;;;;5027671;28;20194;-83
2023/07/11 11:59:03;;;;;;;0.10;0.10;;;34.90;99.90;;;;;;5030167;28;20209;-83
2023/07/11 12:01:53;;;;;;;0.10;0.10;;;34.90;99.90;;;;;;5027260;28;20214;-83
2023/07/11 12:04:28;;;;;;;0.10;0.10;;;35.00;99.90;;;;;;5027998;28;20184;-83
2023/07/11 12:07:12;;;;;;;0.10;0.10;;;35.00;99.90;;;;;;5030084;28;20275;-83
2023/07/11 12:09:39;;;;;;;0.10;0.10;;;35.30;99.90;;;;;;5027266;28;20232;-82
2023/07/11 12:12:09;;;;;;;0.10;0.10;;;35.10;99.90;;;;;;5028422;28;20234;-83
2023/07/11 12:14:44;;;;;;;0.10;0.10;;;34.80;99.90;;;;;;5026809;28;20193;-83
2023/07/11 12:17:47;;;;;;;0.10;0.10;;;34.90;99.90;;;;;;5027714;28;20244;-83
2023/07/11 12:20:19;;;;;;;0.10;0.10;;;34.90;99.90;;;;;;4983355;28;20210;-83
2023/07/11 12:22:45;;;;;;;0.10;0.10;;;35.00;99.90;;;;;;5037401;28;20203;-82
2023/07/11 12:25:23;;;;;;;1.50;1.48;;;35.00;99.90;;;;;;5030203;28;20258;-83
2023/07/11 12:28:02;;;;;;;0.10;0.10;;;35.10;99.90;;;;;;5024894;28;20233;-83
2023/07/11 12:30:39;;;;;;;0.10;0.10;;;35.20;99.90;;;;;;5024954;28;20324;-83
2023/07/11 12:33:33;;;;;;;0.10;0.10;;;35.40;99.90;;;;;;5028682;28;20189;-83
2023/07/11 12:36:20;;;;;;;0.10;0.10;;;35.50;99.90;;;;;;5028020;28;20186;-83
2023/07/11 12:38:59;;;;;;;0.10;0.10;;;35.10;99.90;;;;;;5027943;28;20271;-84
2023/07/11 12:41:50;;;;;;;0.10;0.10;;;35.00;99.90;;;;;;5027015;28;20690;-83
2023/07/11 12:44:17;;;;;;;0.10;0.10;;;35.10;99.90;;;;;;5023000;28;20198;-83
2023/07/11 12:46:45;;;;;;;0.10;0.10;;;35.40;99.90;;;;;;5024480;28;20179;-83
2023/07/11 12:49:39;;;;;;;0.10;0.10;;;35.40;99.90;;;;;;5023543;28;20202;-84
2023/07/11 12:52:10;;;;;;;0.10;0.10;;;35.70;99.90;;;;;;5025269;28;20709;-83
2023/07/11 12:54:36;;;;;;;0.10;0.10;;;35.80;99.90;;;;;;5021669;28;20559;-83
2023/07/11 12:57:01;;;;;;;0.10;0.10;;;35.40;99.90;;;;;;5027164;28;20178;-82
2023/07/11 12:59:29;;;;;;;0.20;0.20;;;35.30;99.90;;;;;;5027296;28;20664;-83
2023/07/11 13:01:58;;;;;;;0.15;0.15;;;35.10;99.90;;;;;;5024503;28;20218;-83